Salt Lake City, Utah
Traffic Map
Current Weather Conditions
Salt Lake City, Utah
Broken Clouds
Broken Clouds
48°
Feels Like: 44°
Wind Chill: 44° Ceiling: 3700
Heat Index: 48° Visibility: 10mi
Dew Point: 44° Wind: 9mph
Humidity: 86% Direction: 320° (NW)
Pressure: 29.89in Gusts: 0mph
Raw Report DataKSLC 241154Z 32008KT 10SM FEW025 BKN037 09/07 A2989 RMK AO2 SLP101 60009 70041 T00890067 10089 20067 56006
Traffic Incident Summary
Active as of:
Severity:
Category:
InformationThere was an issue retrieving the traffic information for this location. Please try a different location or try again shortly.
Advertisements